createdAt,value
2019-01-17T00:00:34.970Z,18.10
2019-01-17T00:01:45.696Z,18.10
2019-01-17T00:03:03.006Z,18.10
2019-01-17T00:04:08.250Z,18.10
2019-01-17T00:05:31.665Z,18.09
2019-01-17T00:06:42.620Z,18.08
2019-01-17T00:07:59.534Z,18.07
2019-01-17T00:09:13.311Z,18.07
2019-01-17T00:10:21.379Z,18.07
2019-01-17T00:11:35.152Z,18.06
2019-01-17T00:12:55.472Z,18.06
2019-01-17T00:14:00.674Z,18.05
2019-01-17T00:15:13.889Z,18.04
2019-01-17T00:16:24.922Z,18.03
2019-01-17T00:17:41.959Z,18.02
2019-01-17T00:18:47.178Z,18.04
2019-01-17T00:19:55.023Z,18.01
2019-01-17T00:21:00.326Z,18.02
2019-01-17T00:22:22.003Z,18.00
2019-01-17T00:23:27.282Z,18.00
2019-01-17T00:24:48.065Z,17.99
2019-01-17T00:25:55.809Z,17.98
2019-01-17T00:27:09.689Z,17.98
2019-01-17T00:28:23.873Z,17.98
2019-01-17T00:29:29.154Z,17.97
2019-01-17T00:30:37.152Z,17.96
2019-01-17T00:31:59.927Z,17.97
2019-01-17T00:33:21.114Z,17.95
2019-01-17T00:34:26.328Z,17.94
2019-01-17T00:35:37.381Z,17.94
2019-01-17T00:36:54.112Z,17.92
2019-01-17T00:38:05.008Z,17.92
2019-01-17T00:39:16.946Z,17.91
2019-01-17T00:40:27.746Z,17.91
2019-01-17T00:41:41.731Z,17.90
2019-01-17T00:42:52.413Z,17.90
2019-01-17T00:44:00.053Z,17.88
2019-01-17T00:45:12.330Z,17.88
2019-01-17T00:46:35.586Z,17.87
2019-01-17T00:47:43.683Z,17.86
2019-01-17T00:48:48.904Z,17.86
2019-01-17T00:49:59.833Z,17.86
2019-01-17T00:51:20.930Z,17.86
2019-01-17T00:52:29.173Z,17.84
2019-01-17T00:53:34.317Z,17.83
2019-01-17T00:54:39.527Z,17.84
2019-01-17T00:55:50.687Z,17.83
2019-01-17T00:56:55.837Z,17.83
2019-01-17T00:58:06.738Z,17.82
2019-01-17T00:59:11.904Z,17.82
2019-01-17T01:00:18.081Z,17.84
2019-01-17T01:01:32.114Z,17.83
2019-01-17T01:02:37.404Z,17.84
2019-01-17T01:03:51.005Z,17.83
2019-01-17T01:05:11.961Z,17.83
2019-01-17T01:06:33.245Z,17.84
2019-01-17T01:07:54.427Z,17.83
2019-01-17T01:09:05.207Z,17.83
2019-01-17T01:10:12.598Z,17.82
2019-01-17T01:11:33.430Z,17.83
2019-01-17T01:12:44.007Z,17.83
2019-01-17T01:14:07.261Z,17.81
2019-01-17T01:15:15.832Z,17.81
2019-01-17T01:16:25.129Z,17.79
2019-01-17T01:17:30.261Z,17.79
2019-01-17T01:18:41.224Z,17.78
2019-01-17T01:20:02.210Z,17.78
2019-01-17T01:21:23.388Z,17.78
2019-01-17T01:22:28.520Z,17.77
2019-01-17T01:23:36.384Z,17.75
2019-01-17T01:24:53.119Z,17.76
2019-01-17T01:26:06.862Z,17.74
2019-01-17T01:27:12.053Z,17.75
2019-01-17T01:28:25.747Z,17.75
2019-01-17T01:29:33.812Z,17.75
2019-01-17T01:30:41.828Z,17.76
2019-01-17T01:31:47.040Z,17.76
2019-01-17T01:33:10.051Z,17.76
2019-01-17T01:34:23.676Z,17.76
2019-01-17T01:35:28.813Z,17.75
2019-01-17T01:36:34.108Z,17.77
2019-01-17T01:37:41.918Z,17.75
2019-01-17T01:39:02.707Z,17.73
2019-01-17T01:40:25.837Z,17.76
2019-01-17T01:41:30.992Z,17.75
2019-01-17T01:42:38.823Z,17.76
2019-01-17T01:43:59.709Z,17.76
2019-01-17T01:45:05.058Z,17.77
2019-01-17T01:46:16.252Z,17.78
2019-01-17T01:47:39.278Z,17.77
2019-01-17T01:49:00.431Z,17.78
2019-01-17T01:50:12.961Z,17.79
2019-01-17T01:51:29.862Z,17.79
2019-01-17T01:52:43.627Z,17.80
2019-01-17T01:53:47.116Z,17.80
2019-01-17T01:54:50.646Z,17.79
2019-01-17T01:55:54.128Z,17.81
2019-01-17T01:56:57.710Z,17.79
2019-01-17T01:58:01.266Z,17.78
2019-01-17T01:59:04.984Z,17.77
2019-01-17T02:00:11.083Z,17.77
2019-01-17T02:01:14.703Z,17.76
2019-01-17T02:02:18.297Z,17.75
2019-01-17T02:03:21.792Z,17.74
2019-01-17T02:04:25.441Z,17.74
2019-01-17T02:05:29.038Z,17.74
2019-01-17T02:06:32.531Z,17.72
2019-01-17T02:07:36.172Z,17.72
2019-01-17T02:08:39.659Z,17.73
2019-01-17T02:09:43.295Z,17.71
2019-01-17T02:10:48.890Z,17.71
2019-01-17T02:11:52.097Z,17.69
2019-01-17T02:12:55.588Z,17.70
2019-01-17T02:13:59.421Z,17.70
2019-01-17T02:15:02.990Z,17.69
2019-01-17T02:16:06.611Z,17.67
2019-01-17T02:17:10.372Z,17.67
2019-01-17T02:18:13.999Z,17.67
2019-01-17T02:19:17.572Z,17.66
2019-01-17T02:20:21.304Z,17.66
2019-01-17T02:21:24.955Z,17.64
2019-01-17T02:22:28.449Z,17.65
2019-01-17T02:23:31.966Z,17.64
2019-01-17T02:24:35.519Z,17.65
2019-01-17T02:25:39.028Z,17.65
2019-01-17T02:26:42.657Z,17.65
2019-01-17T02:27:46.232Z,17.64
2019-01-17T02:28:49.733Z,17.64
2019-01-17T02:29:53.231Z,17.64
2019-01-17T02:30:56.730Z,17.64
2019-01-17T02:32:00.247Z,17.62
2019-01-17T02:33:03.806Z,17.64
2019-01-17T02:34:07.374Z,17.64
2019-01-17T02:35:11.095Z,17.63
2019-01-17T02:36:14.722Z,17.63
2019-01-17T02:37:18.420Z,17.62
2019-01-17T02:38:22.058Z,17.62
2019-01-17T02:39:25.545Z,17.63
2019-01-17T02:40:29.057Z,17.62
2019-01-17T02:41:32.550Z,17.62
2019-01-17T02:42:36.139Z,17.60
2019-01-17T02:43:39.771Z,17.61
2019-01-17T02:44:43.335Z,17.61
2019-01-17T02:45:47.040Z,17.60
2019-01-17T02:46:50.590Z,17.61
2019-01-17T02:47:54.185Z,17.61
2019-01-17T02:48:57.680Z,17.60
2019-01-17T02:50:01.248Z,17.59
2019-01-17T02:51:04.886Z,17.59
2019-01-17T02:52:08.575Z,17.59
2019-01-17T02:53:12.088Z,17.57
2019-01-17T02:54:15.583Z,17.58
2019-01-17T02:55:19.362Z,17.57
2019-01-17T02:56:22.936Z,17.57
2019-01-17T02:57:26.631Z,17.56
2019-01-17T02:58:30.227Z,17.56
2019-01-17T02:59:33.716Z,17.57
2019-01-17T03:00:37.282Z,17.58
2019-01-17T03:01:40.865Z,17.57
2019-01-17T03:02:44.790Z,17.57
2019-01-17T03:03:48.425Z,17.58
2019-01-17T03:04:51.916Z,17.58
2019-01-17T03:05:55.405Z,17.59
2019-01-17T03:06:59.035Z,17.59
2019-01-17T03:08:02.540Z,17.56
2019-01-17T03:09:08.049Z,17.57
2019-01-17T03:10:16.198Z,17.58
2019-01-17T03:11:19.741Z,17.57
2019-01-17T03:12:23.305Z,17.57
2019-01-17T03:13:26.963Z,17.58
2019-01-17T03:14:30.465Z,17.57
2019-01-17T03:15:34.046Z,17.57
2019-01-17T03:16:37.601Z,17.57
2019-01-17T03:17:41.086Z,17.57
2019-01-17T03:18:44.639Z,17.57
2019-01-17T03:19:48.160Z,17.56
2019-01-17T03:20:51.837Z,17.57
2019-01-17T03:21:55.375Z,17.55
2019-01-17T03:22:58.893Z,17.57
2019-01-17T03:24:02.518Z,17.56
2019-01-17T03:25:08.215Z,17.55
2019-01-17T03:26:11.825Z,17.55
2019-01-17T03:27:15.294Z,17.55
2019-01-17T03:28:18.806Z,17.54
2019-01-17T03:29:22.419Z,17.53
2019-01-17T03:30:26.190Z,17.53
2019-01-17T03:31:29.863Z,17.54
2019-01-17T03:32:33.408Z,17.53
2019-01-17T03:33:37.074Z,17.52
2019-01-17T03:34:40.533Z,17.51
2019-01-17T03:35:44.130Z,17.52
2019-01-17T03:36:47.810Z,17.51
2019-01-17T03:37:51.414Z,17.52
2019-01-17T03:38:54.911Z,17.50
2019-01-17T03:39:58.409Z,17.51
2019-01-17T03:41:01.987Z,17.50
2019-01-17T03:42:05.652Z,17.48
2019-01-17T03:43:09.254Z,17.48
2019-01-17T03:44:12.797Z,17.46
2019-01-17T03:45:16.560Z,17.46
2019-01-17T03:46:20.072Z,17.45
2019-01-17T03:47:23.715Z,17.44
2019-01-17T03:48:27.294Z,17.44
2019-01-17T03:49:30.931Z,17.43
2019-01-17T03:50:34.580Z,17.43
2019-01-17T03:51:38.226Z,17.42
2019-01-17T03:52:41.932Z,17.41
2019-01-17T03:53:45.431Z,17.42
2019-01-17T03:54:52.789Z,17.42
2019-01-17T03:55:54.597Z,17.40
2019-01-17T03:56:58.254Z,17.41
2019-01-17T03:58:01.931Z,17.41
2019-01-17T03:59:05.498Z,17.39
2019-01-17T04:00:17.394Z,17.40
2019-01-17T04:01:21.037Z,17.39
2019-01-17T04:02:24.629Z,17.40
2019-01-17T04:03:28.252Z,17.39
2019-01-17T04:04:31.760Z,17.39
2019-01-17T04:05:35.268Z,17.38
2019-01-17T04:06:38.887Z,17.38
2019-01-17T04:07:42.646Z,17.37
2019-01-17T04:08:46.204Z,17.37
2019-01-17T04:09:49.938Z,17.37
2019-01-17T04:10:53.462Z,17.37
2019-01-17T04:11:57.033Z,17.37
2019-01-17T04:13:00.570Z,17.36
2019-01-17T04:14:04.237Z,17.37
2019-01-17T04:15:09.655Z,17.37
2019-01-17T04:16:13.228Z,17.38
2019-01-17T04:17:16.770Z,17.36
2019-01-17T04:18:20.319Z,17.37
2019-01-17T04:19:23.832Z,17.36
2019-01-17T04:20:27.463Z,17.36
2019-01-17T04:21:31.067Z,17.34
2019-01-17T04:22:34.629Z,17.34
2019-01-17T04:23:38.195Z,17.33
2019-01-17T04:24:41.702Z,17.33
2019-01-17T04:25:45.329Z,17.32
2019-01-17T04:26:48.867Z,17.29
2019-01-17T04:27:52.379Z,17.32
2019-01-17T04:28:55.941Z,17.32
2019-01-17T04:29:59.433Z,17.29
2019-01-17T04:31:02.979Z,17.29
2019-01-17T04:32:06.620Z,17.29
2019-01-17T04:33:10.211Z,17.29
2019-01-17T04:34:13.781Z,17.28
2019-01-17T04:35:17.559Z,17.26
2019-01-17T04:36:21.026Z,17.28
2019-01-17T04:37:24.663Z,17.27
2019-01-17T04:38:28.210Z,17.27
2019-01-17T04:39:31.787Z,17.27
2019-01-17T04:40:35.360Z,17.27
2019-01-17T04:41:38.920Z,17.26
2019-01-17T04:42:42.503Z,17.26
2019-01-17T04:43:46.071Z,17.25
2019-01-17T04:44:49.609Z,17.24
2019-01-17T04:45:53.215Z,17.24
2019-01-17T04:46:56.669Z,17.24
2019-01-17T04:48:00.163Z,17.24
2019-01-17T04:49:03.755Z,17.23
2019-01-17T04:50:10.049Z,17.22
2019-01-17T04:51:13.732Z,17.21
2019-01-17T04:52:18.215Z,17.19
2019-01-17T04:53:21.714Z,17.20
2019-01-17T04:54:25.393Z,17.20
2019-01-17T04:55:28.986Z,17.20
2019-01-17T04:56:32.621Z,17.19
2019-01-17T04:57:36.197Z,17.18
2019-01-17T04:58:39.679Z,17.18
2019-01-17T04:59:43.196Z,17.17
2019-01-17T05:00:46.789Z,17.18
2019-01-17T05:01:50.328Z,17.17
2019-01-17T05:02:53.980Z,17.17
2019-01-17T05:03:57.541Z,17.17
2019-01-17T05:05:01.110Z,17.17
2019-01-17T05:06:04.981Z,17.16
2019-01-17T05:07:08.598Z,17.14
2019-01-17T05:08:12.251Z,17.16
2019-01-17T05:09:15.739Z,17.18
2019-01-17T05:10:19.367Z,17.18
2019-01-17T05:11:23.004Z,17.20
2019-01-17T05:12:26.612Z,17.23
2019-01-17T05:13:30.278Z,17.32
2019-01-17T05:14:33.817Z,17.40
2019-01-17T05:15:37.365Z,17.46
2019-01-17T05:16:40.887Z,17.59
2019-01-17T05:17:44.464Z,17.64
2019-01-17T05:18:47.957Z,17.72
2019-01-17T05:19:51.473Z,17.84
2019-01-17T05:20:55.101Z,17.97
2019-01-17T05:21:58.670Z,18.07
2019-01-17T05:23:02.162Z,18.22
2019-01-17T05:24:05.902Z,18.31
2019-01-17T05:25:12.755Z,18.37
2019-01-17T05:26:15.067Z,18.45
2019-01-17T05:27:18.724Z,18.59
2019-01-17T05:28:22.289Z,18.63
2019-01-17T05:29:25.763Z,18.68
2019-01-17T05:30:29.308Z,18.74
2019-01-17T05:31:32.819Z,18.82
2019-01-17T05:32:36.793Z,18.93
2019-01-17T05:33:40.481Z,19.02
2019-01-17T05:34:44.063Z,19.05
2019-01-17T05:35:47.670Z,19.10
2019-01-17T05:36:51.198Z,19.18
2019-01-17T05:37:54.671Z,19.22
2019-01-17T05:38:58.285Z,19.25
2019-01-17T05:40:01.797Z,19.27
2019-01-17T05:41:05.580Z,19.33
2019-01-17T05:42:09.289Z,19.38
2019-01-17T05:43:12.893Z,19.39
2019-01-17T05:44:16.502Z,19.42
2019-01-17T05:45:20.153Z,19.46
2019-01-17T05:46:23.875Z,19.49
2019-01-17T05:47:27.474Z,19.52
2019-01-17T05:48:31.073Z,19.51
2019-01-17T05:49:34.635Z,19.49
2019-01-17T05:50:38.153Z,19.48
2019-01-17T05:51:41.784Z,19.47
2019-01-17T05:52:45.375Z,19.47
2019-01-17T05:53:48.883Z,19.42
2019-01-17T05:54:52.458Z,19.42
2019-01-17T05:55:55.943Z,19.40
2019-01-17T05:56:59.495Z,19.39
2019-01-17T05:58:03.103Z,19.34
2019-01-17T05:59:06.681Z,19.33
2019-01-17T06:00:15.741Z,19.32
2019-01-17T06:01:19.226Z,19.32
2019-01-17T06:02:22.800Z,19.32
2019-01-17T06:03:26.307Z,19.32
2019-01-17T06:04:29.801Z,19.31
2019-01-17T06:05:33.373Z,19.33
2019-01-17T06:06:36.913Z,19.36
2019-01-17T06:07:40.436Z,19.39
2019-01-17T06:08:43.944Z,19.40
2019-01-17T06:09:47.506Z,19.46
2019-01-17T06:10:51.089Z,19.50
2019-01-17T06:11:54.655Z,19.52
2019-01-17T06:12:58.300Z,19.54
2019-01-17T06:14:01.880Z,19.56
2019-01-17T06:15:08.605Z,19.55
2019-01-17T06:16:12.241Z,19.53
2019-01-17T06:17:15.748Z,19.52
2019-01-17T06:18:19.250Z,19.51
2019-01-17T06:19:22.768Z,19.50
2019-01-17T06:20:26.342Z,19.48
2019-01-17T06:21:29.951Z,19.47
2019-01-17T06:22:33.441Z,19.44
2019-01-17T06:23:36.921Z,19.45
2019-01-17T06:24:40.510Z,19.41
2019-01-17T06:25:44.065Z,19.39
2019-01-17T06:26:47.616Z,19.43
2019-01-17T06:27:51.178Z,19.46
2019-01-17T06:28:54.673Z,19.46
2019-01-17T06:29:58.261Z,19.48
2019-01-17T06:31:01.756Z,19.48
2019-01-17T06:32:05.385Z,19.53
2019-01-17T06:33:08.878Z,19.54
2019-01-17T06:34:12.434Z,19.51
2019-01-17T06:35:16.279Z,19.51
2019-01-17T06:36:20.005Z,19.53
2019-01-17T06:37:23.563Z,19.50
2019-01-17T06:38:27.143Z,19.50
2019-01-17T06:39:30.640Z,19.47
2019-01-17T06:40:34.427Z,19.45
2019-01-17T06:41:38.067Z,19.42
2019-01-17T06:42:41.563Z,19.39
2019-01-17T06:43:45.122Z,19.37
2019-01-17T06:44:48.715Z,19.34
2019-01-17T06:45:52.223Z,19.29
2019-01-17T06:46:55.780Z,19.35
2019-01-17T06:47:59.271Z,19.33
2019-01-17T06:49:02.799Z,19.33
2019-01-17T06:50:09.305Z,19.36
2019-01-17T06:51:12.833Z,19.42
2019-01-17T06:52:16.329Z,19.46
2019-01-17T06:53:19.814Z,19.46
2019-01-17T06:54:23.291Z,19.49
2019-01-17T06:55:26.898Z,19.49
2019-01-17T06:56:30.426Z,19.50
2019-01-17T06:57:34.130Z,19.48
2019-01-17T06:58:37.640Z,19.46
2019-01-17T06:59:41.207Z,19.46
2019-01-17T07:00:44.841Z,19.45
2019-01-17T07:01:48.368Z,19.43
2019-01-17T07:02:51.911Z,19.43
2019-01-17T07:03:55.481Z,19.38
2019-01-17T07:04:59.053Z,19.36
2019-01-17T07:06:02.612Z,19.38
2019-01-17T07:07:06.142Z,19.34
2019-01-17T07:08:09.885Z,19.35
2019-01-17T07:09:13.537Z,19.34
2019-01-17T07:10:18.097Z,19.36
2019-01-17T07:11:21.711Z,19.38
2019-01-17T07:12:25.215Z,19.39
2019-01-17T07:13:28.744Z,19.36
2019-01-17T07:14:32.194Z,19.34
2019-01-17T07:15:35.883Z,19.35
2019-01-17T07:16:39.449Z,19.35
2019-01-17T07:17:43.091Z,19.36
2019-01-17T07:18:46.662Z,19.36
2019-01-17T07:19:50.135Z,19.34
2019-01-17T07:20:53.608Z,19.31
2019-01-17T07:21:57.175Z,19.31
2019-01-17T07:23:00.753Z,19.31
2019-01-17T07:24:04.637Z,19.29
2019-01-17T07:25:10.047Z,19.26
2019-01-17T07:26:13.597Z,19.27
2019-01-17T07:27:17.195Z,19.25
2019-01-17T07:28:20.695Z,19.26
2019-01-17T07:29:24.243Z,19.26
2019-01-17T07:30:27.824Z,19.24
2019-01-17T07:31:31.368Z,19.27
2019-01-17T07:32:35.010Z,19.27
2019-01-17T07:33:38.551Z,19.31
2019-01-17T07:34:42.025Z,19.34
2019-01-17T07:35:45.531Z,19.35
2019-01-17T07:36:49.135Z,19.37
2019-01-17T07:37:52.687Z,19.34
2019-01-17T07:38:56.294Z,19.35
2019-01-17T07:39:59.797Z,19.35
2019-01-17T07:41:03.435Z,19.35
2019-01-17T07:42:07.083Z,19.35
2019-01-17T07:43:10.780Z,19.34
2019-01-17T07:44:14.388Z,19.30
2019-01-17T07:45:23.636Z,19.24
2019-01-17T07:46:27.130Z,19.19
2019-01-17T07:47:30.778Z,19.14
2019-01-17T07:48:34.383Z,19.08
2019-01-17T07:49:38.260Z,19.01
2019-01-17T07:50:41.769Z,18.94
2019-01-17T07:51:45.324Z,18.87
2019-01-17T07:52:49.063Z,18.81
2019-01-17T07:53:52.624Z,18.72
2019-01-17T07:54:56.228Z,18.69
2019-01-17T07:55:59.963Z,18.62
2019-01-17T07:57:03.513Z,18.57
2019-01-17T07:58:07.056Z,18.53
2019-01-17T07:59:10.583Z,18.49
2019-01-17T08:00:17.165Z,18.49
2019-01-17T08:01:20.758Z,18.48
2019-01-17T08:02:24.319Z,18.49
2019-01-17T08:03:27.877Z,18.52
2019-01-17T08:04:31.535Z,18.55
2019-01-17T08:05:35.200Z,18.58
2019-01-17T08:06:38.848Z,18.61
2019-01-17T08:07:42.486Z,18.63
2019-01-17T08:08:46.112Z,18.66
2019-01-17T08:09:49.679Z,18.67
2019-01-17T08:10:53.203Z,18.67
2019-01-17T08:11:56.688Z,18.69
2019-01-17T08:13:00.384Z,18.67
2019-01-17T08:14:04.069Z,18.66
2019-01-17T08:15:09.811Z,18.67
2019-01-17T08:16:13.393Z,18.67
2019-01-17T08:17:17.112Z,18.68
2019-01-17T08:18:20.611Z,18.70
2019-01-17T08:19:24.231Z,18.70
2019-01-17T08:20:27.860Z,18.70
2019-01-17T08:21:31.378Z,18.68
2019-01-17T08:22:34.861Z,18.73
2019-01-17T08:23:38.433Z,18.74
2019-01-17T08:24:41.911Z,18.74
2019-01-17T08:25:45.479Z,18.72
2019-01-17T08:26:49.028Z,18.72
2019-01-17T08:27:52.653Z,18.70
2019-01-17T08:28:56.163Z,18.68
2019-01-17T08:29:59.667Z,18.66
2019-01-17T08:31:03.355Z,18.64
2019-01-17T08:32:06.881Z,18.63
2019-01-17T08:33:10.386Z,18.61
2019-01-17T08:34:13.943Z,18.61
2019-01-17T08:35:18.164Z,18.59
2019-01-17T08:36:21.858Z,18.56
2019-01-17T08:37:25.544Z,18.53
2019-01-17T08:38:29.049Z,18.53
2019-01-17T08:39:33.265Z,18.51
2019-01-17T08:40:36.767Z,18.50
2019-01-17T08:41:40.270Z,18.50
2019-01-17T08:42:43.923Z,18.47
2019-01-17T08:43:47.497Z,18.45
2019-01-17T08:44:50.973Z,18.43
2019-01-17T08:45:54.481Z,18.42
2019-01-17T08:46:57.976Z,18.41
2019-01-17T08:48:01.545Z,18.40
2019-01-17T08:49:05.257Z,18.39
2019-01-17T08:50:11.860Z,18.38
2019-01-17T08:51:15.407Z,18.36
2019-01-17T08:52:18.977Z,18.36
2019-01-17T08:53:22.623Z,18.34
2019-01-17T08:54:26.261Z,18.33
2019-01-17T08:55:29.916Z,18.33
2019-01-17T08:56:33.440Z,18.33
2019-01-17T08:57:37.009Z,18.33
2019-01-17T08:58:40.539Z,18.32
2019-01-17T08:59:44.041Z,18.31
2019-01-17T09:00:47.703Z,18.29
2019-01-17T09:01:51.267Z,18.28
2019-01-17T09:02:54.997Z,18.27
2019-01-17T09:03:58.754Z,18.27
2019-01-17T09:05:02.249Z,18.26
2019-01-17T09:06:05.852Z,18.24
2019-01-17T09:07:09.412Z,18.23
2019-01-17T09:08:12.979Z,18.23
2019-01-17T09:09:16.505Z,18.22
2019-01-17T09:10:28.108Z,18.21
2019-01-17T09:11:31.620Z,18.20
2019-01-17T09:12:35.172Z,18.19
2019-01-17T09:13:38.669Z,18.17
2019-01-17T09:14:42.180Z,18.15
2019-01-17T09:15:45.740Z,18.13
2019-01-17T09:16:49.311Z,18.11
2019-01-17T09:17:52.934Z,18.09
2019-01-17T09:18:56.471Z,18.07
2019-01-17T09:20:00.001Z,18.04
2019-01-17T09:21:03.554Z,18.00
2019-01-17T09:22:07.120Z,17.99
2019-01-17T09:23:10.748Z,17.96
2019-01-17T09:24:14.248Z,17.96
2019-01-17T09:25:18.307Z,17.93
2019-01-17T09:26:21.859Z,17.91
2019-01-17T09:27:25.373Z,17.88
2019-01-17T09:28:28.924Z,17.86
2019-01-17T09:29:32.480Z,17.85
2019-01-17T09:30:36.214Z,17.83
2019-01-17T09:31:39.760Z,17.79
2019-01-17T09:32:43.400Z,17.80
2019-01-17T09:33:46.906Z,17.77
2019-01-17T09:34:50.427Z,17.77
2019-01-17T09:35:54.023Z,17.74
2019-01-17T09:36:57.604Z,17.73
2019-01-17T09:38:01.174Z,17.70
2019-01-17T09:39:07.150Z,17.71
2019-01-17T09:40:13.374Z,17.70
2019-01-17T09:41:17.071Z,17.68
2019-01-17T09:42:20.570Z,17.67
2019-01-17T09:43:24.053Z,17.66
2019-01-17T09:44:27.555Z,17.65
2019-01-17T09:45:31.050Z,17.64
2019-01-17T09:46:34.565Z,17.62
2019-01-17T09:47:38.219Z,17.61
2019-01-17T09:48:41.699Z,17.60
2019-01-17T09:49:45.261Z,17.58
2019-01-17T09:50:48.748Z,17.58
2019-01-17T09:51:52.392Z,17.58
2019-01-17T09:52:55.976Z,17.57
2019-01-17T09:53:59.596Z,17.54
2019-01-17T09:55:03.219Z,17.56
2019-01-17T09:56:08.072Z,17.56
2019-01-17T09:57:11.762Z,17.56
2019-01-17T09:58:15.327Z,17.55
2019-01-17T09:59:18.822Z,17.54
2019-01-17T10:00:30.032Z,17.55
2019-01-17T10:01:33.674Z,17.53
2019-01-17T10:02:37.995Z,17.54
2019-01-17T10:03:41.448Z,17.53
2019-01-17T10:04:44.933Z,17.52
2019-01-17T10:05:48.426Z,17.53
2019-01-17T10:06:51.913Z,17.51
2019-01-17T10:07:55.571Z,17.52
2019-01-17T10:08:59.129Z,17.51
2019-01-17T10:10:03.784Z,17.51
2019-01-17T10:11:07.266Z,17.49
2019-01-17T10:12:10.886Z,17.48
2019-01-17T10:13:14.499Z,17.48
2019-01-17T10:14:18.204Z,17.47
2019-01-17T10:15:33.354Z,17.45
2019-01-17T10:16:40.253Z,17.46
2019-01-17T10:17:46.792Z,17.45
2019-01-17T10:19:08.036Z,17.45
2019-01-17T10:20:20.425Z,17.44
2019-01-17T10:21:41.178Z,17.43
2019-01-17T10:22:50.780Z,17.43
2019-01-17T10:24:21.321Z,17.42
2019-01-17T10:25:27.849Z,17.41
2019-01-17T10:26:43.053Z,17.41
2019-01-17T10:27:52.420Z,17.39
2019-01-17T10:29:20.073Z,17.39
2019-01-17T10:30:26.657Z,17.38
2019-01-17T10:31:51.002Z,17.37
2019-01-17T10:33:21.405Z,17.37
2019-01-17T10:34:42.787Z,17.35
2019-01-17T10:36:08.504Z,17.35
2019-01-17T10:37:30.149Z,17.34
2019-01-17T10:38:42.599Z,17.33
2019-01-17T10:40:20.217Z,17.31
2019-01-17T10:41:38.178Z,17.31
2019-01-17T10:42:47.347Z,17.29
2019-01-17T10:44:02.608Z,17.30
2019-01-17T10:45:27.211Z,17.28
2019-01-17T10:46:57.202Z,17.28
2019-01-17T10:48:09.518Z,17.26
2019-01-17T10:49:50.654Z,17.26
2019-01-17T10:51:00.183Z,17.25
2019-01-17T10:52:12.425Z,17.24
2019-01-17T10:53:39.734Z,17.24
2019-01-17T10:54:52.036Z,17.22
2019-01-17T10:56:07.208Z,17.21
2019-01-17T10:57:19.454Z,17.21
2019-01-17T10:58:37.678Z,17.21
2019-01-17T10:59:53.313Z,17.20
2019-01-17T11:01:11.945Z,17.18
2019-01-17T11:02:43.774Z,17.18
2019-01-17T11:03:59.169Z,17.18
2019-01-17T11:05:30.636Z,17.16
2019-01-17T11:07:02.201Z,17.16
2019-01-17T11:08:11.576Z,17.14
2019-01-17T11:09:33.028Z,17.14
2019-01-17T11:10:45.310Z,17.14
2019-01-17T11:12:06.790Z,17.13
2019-01-17T11:13:34.230Z,17.11
2019-01-17T11:14:59.756Z,17.11
2019-01-17T11:16:12.217Z,17.10
2019-01-17T11:17:18.753Z,17.10
2019-01-17T11:18:25.294Z,17.10
2019-01-17T11:19:40.720Z,17.11
2019-01-17T11:21:06.775Z,17.12
2019-01-17T11:22:30.005Z,17.13
2019-01-17T11:23:47.840Z,17.15
2019-01-17T11:25:18.158Z,17.15
2019-01-17T11:26:40.724Z,17.18
2019-01-17T11:27:52.871Z,17.19
2019-01-17T11:29:16.004Z,17.19
2019-01-17T11:30:49.370Z,17.21
2019-01-17T11:32:12.202Z,17.21
2019-01-17T11:33:29.917Z,17.20
2019-01-17T11:34:48.579Z,17.22
2019-01-17T11:35:57.526Z,17.21
2019-01-17T11:37:38.505Z,17.22
2019-01-17T11:38:56.470Z,17.22
2019-01-17T11:40:11.746Z,17.22
2019-01-17T11:41:27.153Z,17.21
2019-01-17T11:42:39.451Z,17.20
2019-01-17T11:44:02.478Z,17.19
2019-01-17T11:45:11.827Z,17.20
2019-01-17T11:46:24.186Z,17.19
2019-01-17T11:47:39.554Z,17.18
2019-01-17T11:48:54.560Z,17.18
2019-01-17T11:50:15.903Z,17.18
2019-01-17T11:51:28.330Z,17.17
2019-01-17T11:52:46.871Z,17.18
2019-01-17T11:53:56.090Z,17.16
2019-01-17T11:55:24.708Z,17.15
2019-01-17T11:56:43.138Z,17.14
2019-01-17T11:57:55.758Z,17.13
2019-01-17T11:59:27.832Z,17.12
2019-01-17T12:00:49.110Z,17.14
2019-01-17T12:02:01.494Z,17.11
2019-01-17T12:03:13.714Z,17.11
2019-01-17T12:04:23.010Z,17.10
2019-01-17T12:05:26.516Z,17.09
2019-01-17T12:06:30.099Z,17.09
2019-01-17T12:07:33.767Z,17.08
2019-01-17T12:08:37.266Z,17.07
2019-01-17T12:09:40.897Z,17.08
2019-01-17T12:10:44.453Z,17.07
2019-01-17T12:11:48.049Z,17.07
2019-01-17T12:12:51.779Z,17.07
2019-01-17T12:13:55.347Z,17.07
2019-01-17T12:14:59.243Z,17.07
2019-01-17T12:16:02.804Z,17.07
2019-01-17T12:17:06.381Z,17.07
2019-01-17T12:18:09.947Z,17.08
2019-01-17T12:19:13.507Z,17.09
2019-01-17T12:20:17.095Z,17.11
2019-01-17T12:21:20.649Z,17.11
2019-01-17T12:22:24.848Z,17.11
2019-01-17T12:23:28.368Z,17.12
2019-01-17T12:24:31.931Z,17.12
2019-01-17T12:25:35.491Z,17.12
2019-01-17T12:26:39.054Z,17.12
2019-01-17T12:27:42.875Z,17.12
2019-01-17T12:28:46.460Z,17.12
2019-01-17T12:29:50.020Z,17.13
2019-01-17T12:30:53.500Z,17.13
2019-01-17T12:31:57.192Z,17.13
2019-01-17T12:33:00.711Z,17.13
2019-01-17T12:34:04.637Z,17.12
2019-01-17T12:35:09.968Z,17.11
2019-01-17T12:36:13.519Z,17.12
2019-01-17T12:37:17.021Z,17.11
2019-01-17T12:38:20.528Z,17.12
2019-01-17T12:39:24.160Z,17.11
2019-01-17T12:40:27.658Z,17.10
2019-01-17T12:41:31.145Z,17.10
2019-01-17T12:42:34.679Z,17.09
2019-01-17T12:43:38.341Z,17.09
2019-01-17T12:44:42.022Z,17.09
2019-01-17T12:45:45.617Z,17.08
2019-01-17T12:46:49.184Z,17.08
2019-01-17T12:47:52.672Z,17.07
2019-01-17T12:48:56.201Z,17.07
2019-01-17T12:49:59.669Z,17.06
2019-01-17T12:51:03.163Z,17.05
2019-01-17T12:52:06.731Z,17.05
2019-01-17T12:53:10.275Z,17.04
2019-01-17T12:54:13.867Z,17.03
2019-01-17T12:55:17.510Z,17.03
2019-01-17T12:56:20.978Z,17.02
2019-01-17T12:57:24.481Z,17.02
2019-01-17T12:58:28.031Z,17.02
2019-01-17T12:59:31.631Z,17.01
2019-01-17T13:00:35.293Z,17.01
2019-01-17T13:01:38.840Z,17.00
2019-01-17T13:02:42.427Z,16.98
2019-01-17T13:03:45.906Z,16.99
2019-01-17T13:04:49.546Z,16.98
2019-01-17T13:05:53.055Z,16.99
2019-01-17T13:06:56.605Z,16.98
2019-01-17T13:08:00.177Z,16.97
2019-01-17T13:09:05.203Z,16.96
2019-01-17T13:10:11.733Z,16.96
2019-01-17T13:11:15.368Z,16.96
2019-01-17T13:12:18.874Z,16.95
2019-01-17T13:13:22.424Z,16.95
2019-01-17T13:14:25.991Z,16.95
2019-01-17T13:15:29.615Z,16.95
2019-01-17T13:16:33.269Z,16.96
2019-01-17T13:17:36.865Z,16.98
2019-01-17T13:18:40.426Z,16.97
2019-01-17T13:19:44.026Z,17.00
2019-01-17T13:20:47.635Z,16.99
2019-01-17T13:21:51.225Z,17.01
2019-01-17T13:22:55.220Z,17.02
2019-01-17T13:23:58.890Z,17.03
2019-01-17T13:25:04.130Z,17.03
2019-01-17T13:26:07.934Z,17.03
2019-01-17T13:27:11.553Z,17.04
2019-01-17T13:28:15.124Z,17.04
2019-01-17T13:29:18.622Z,17.03
2019-01-17T13:30:23.381Z,17.03
2019-01-17T13:31:27.114Z,17.03
2019-01-17T13:32:30.789Z,17.03
2019-01-17T13:33:34.448Z,17.04
2019-01-17T13:34:38.052Z,17.03
2019-01-17T13:35:41.620Z,17.03
2019-01-17T13:36:45.230Z,17.02
2019-01-17T13:37:48.901Z,17.02
2019-01-17T13:38:52.451Z,17.02
2019-01-17T13:39:56.235Z,17.02
2019-01-17T13:40:59.886Z,17.03
2019-01-17T13:42:03.405Z,17.03
2019-01-17T13:43:07.113Z,17.05
2019-01-17T13:44:10.801Z,17.05
2019-01-17T13:45:16.850Z,17.05
2019-01-17T13:46:20.481Z,17.07
2019-01-17T13:47:23.956Z,17.06
2019-01-17T13:48:27.457Z,17.08
2019-01-17T13:49:30.925Z,17.06
2019-01-17T13:50:34.596Z,17.09
2019-01-17T13:51:38.212Z,17.08
2019-01-17T13:52:41.821Z,17.08
2019-01-17T13:53:45.325Z,17.08
2019-01-17T13:54:48.897Z,17.09
2019-01-17T13:55:52.593Z,17.07
2019-01-17T13:56:56.135Z,17.07
2019-01-17T13:57:59.781Z,17.06
2019-01-17T13:59:03.446Z,17.06
2019-01-17T14:00:12.771Z,17.07
2019-01-17T14:01:16.278Z,17.05
2019-01-17T14:02:19.770Z,17.05
2019-01-17T14:03:23.411Z,17.06
2019-01-17T14:04:26.916Z,17.06
2019-01-17T14:05:31.522Z,17.07
2019-01-17T14:06:35.113Z,17.08
2019-01-17T14:07:38.776Z,17.08
2019-01-17T14:08:42.255Z,17.09
2019-01-17T14:09:45.779Z,17.09
2019-01-17T14:10:50.830Z,17.09
2019-01-17T14:11:54.377Z,17.10
2019-01-17T14:12:57.983Z,17.10
2019-01-17T14:14:01.448Z,17.10
2019-01-17T14:15:08.087Z,17.10